sensor_id;sensor_type;location;lat;lon;timestamp;P1;durP1;ratioP1;P2;durP2;ratioP2
72156;SDS011;60035;52.122;5.406;2022-07-23T00:01:19;3.13;;;1.38;;
72156;SDS011;60035;52.122;5.406;2022-07-23T00:03:52;3.10;;;1.38;;
72156;SDS011;60035;52.122;5.406;2022-07-23T00:06:20;3.38;;;1.50;;
72156;SDS011;60035;52.122;5.406;2022-07-23T00:08:47;4.68;;;1.33;;
72156;SDS011;60035;52.122;5.406;2022-07-23T00:11:14;5.38;;;1.70;;
72156;SDS011;60035;52.122;5.406;2022-07-23T00:13:40;4.03;;;1.60;;
72156;SDS011;60035;52.122;5.406;2022-07-23T00:16:07;5.15;;;1.50;;
72156;SDS011;60035;52.122;5.406;2022-07-23T00:18:34;3.42;;;1.35;;
72156;SDS011;60035;52.122;5.406;2022-07-23T00:21:01;3.30;;;1.58;;
72156;SDS011;60035;52.122;5.406;2022-07-23T00:23:29;4.07;;;1.50;;
72156;SDS011;60035;52.122;5.406;2022-07-23T00:25:57;4.22;;;1.55;;
72156;SDS011;60035;52.122;5.406;2022-07-23T00:28:23;5.00;;;1.73;;
72156;SDS011;60035;52.122;5.406;2022-07-23T00:30:50;5.93;;;1.50;;
72156;SDS011;60035;52.122;5.406;2022-07-23T00:33:17;6.55;;;1.70;;
72156;SDS011;60035;52.122;5.406;2022-07-23T00:35:43;3.33;;;1.60;;
72156;SDS011;60035;52.122;5.406;2022-07-23T00:38:10;4.50;;;1.73;;
72156;SDS011;60035;52.122;5.406;2022-07-23T00:40:37;3.53;;;1.42;;
72156;SDS011;60035;52.122;5.406;2022-07-23T00:43:05;4.75;;;1.67;;
72156;SDS011;60035;52.122;5.406;2022-07-23T00:45:31;4.30;;;1.40;;
72156;SDS011;60035;52.122;5.406;2022-07-23T00:47:58;6.07;;;1.50;;
72156;SDS011;60035;52.122;5.406;2022-07-23T00:50:25;4.32;;;1.77;;
72156;SDS011;60035;52.122;5.406;2022-07-23T00:52:51;4.68;;;1.55;;
72156;SDS011;60035;52.122;5.406;2022-07-23T00:55:18;5.80;;;1.80;;
72156;SDS011;60035;52.122;5.406;2022-07-23T00:57:45;4.47;;;2.05;;
72156;SDS011;60035;52.122;5.406;2022-07-23T01:00:13;5.03;;;1.90;;
72156;SDS011;60035;52.122;5.406;2022-07-23T01:02:40;4.30;;;1.55;;
72156;SDS011;60035;52.122;5.406;2022-07-23T01:05:09;5.53;;;1.73;;
72156;SDS011;60035;52.122;5.406;2022-07-23T01:07:36;6.10;;;1.48;;
72156;SDS011;60035;52.122;5.406;2022-07-23T01:10:03;5.35;;;2.28;;
72156;SDS011;60035;52.122;5.406;2022-07-23T01:12:31;6.00;;;1.88;;
72156;SDS011;60035;52.122;5.406;2022-07-23T01:14:59;4.85;;;1.60;;
72156;SDS011;60035;52.122;5.406;2022-07-23T01:17:26;4.22;;;1.80;;
72156;SDS011;60035;52.122;5.406;2022-07-23T01:19:53;5.72;;;1.80;;
72156;SDS011;60035;52.122;5.406;2022-07-23T01:22:20;5.10;;;1.98;;
72156;SDS011;60035;52.122;5.406;2022-07-23T01:24:46;5.68;;;2.08;;
72156;SDS011;60035;52.122;5.406;2022-07-23T01:27:13;4.15;;;2.15;;
72156;SDS011;60035;52.122;5.406;2022-07-23T01:29:39;5.47;;;2.03;;
72156;SDS011;60035;52.122;5.406;2022-07-23T01:32:06;4.85;;;1.80;;
72156;SDS011;60035;52.122;5.406;2022-07-23T01:34:32;4.57;;;1.88;;
72156;SDS011;60035;52.122;5.406;2022-07-23T01:36:59;4.50;;;1.80;;
72156;SDS011;60035;52.122;5.406;2022-07-23T01:39:25;5.68;;;2.08;;
72156;SDS011;60035;52.122;5.406;2022-07-23T01:41:52;5.10;;;2.00;;
72156;SDS011;60035;52.122;5.406;2022-07-23T01:44:18;5.15;;;2.03;;
72156;SDS011;60035;52.122;5.406;2022-07-23T01:46:45;4.55;;;1.85;;
72156;SDS011;60035;52.122;5.406;2022-07-23T01:49:11;7.00;;;2.00;;
72156;SDS011;60035;52.122;5.406;2022-07-23T01:51:38;5.13;;;1.88;;
72156;SDS011;60035;52.122;5.406;2022-07-23T01:54:25;4.60;;;2.08;;
72156;SDS011;60035;52.122;5.406;2022-07-23T01:56:52;7.30;;;2.20;;
72156;SDS011;60035;52.122;5.406;2022-07-23T01:59:18;5.90;;;2.22;;
72156;SDS011;60035;52.122;5.406;2022-07-23T02:01:45;6.82;;;2.13;;
72156;SDS011;60035;52.122;5.406;2022-07-23T02:04:11;7.35;;;2.50;;
72156;SDS011;60035;52.122;5.406;2022-07-23T02:06:38;7.47;;;2.17;;
72156;SDS011;60035;52.122;5.406;2022-07-23T02:09:04;5.07;;;2.03;;
72156;SDS011;60035;52.122;5.406;2022-07-23T02:11:31;5.45;;;2.35;;
72156;SDS011;60035;52.122;5.406;2022-07-23T02:13:57;6.25;;;2.10;;
72156;SDS011;60035;52.122;5.406;2022-07-23T02:16:24;6.57;;;2.78;;
72156;SDS011;60035;52.122;5.406;2022-07-23T02:18:50;4.30;;;2.10;;
72156;SDS011;60035;52.122;5.406;2022-07-23T02:21:17;5.00;;;2.05;;
72156;SDS011;60035;52.122;5.406;2022-07-23T02:23:43;5.43;;;2.30;;
72156;SDS011;60035;52.122;5.406;2022-07-23T02:26:10;5.53;;;2.17;;
72156;SDS011;60035;52.122;5.406;2022-07-23T02:28:36;6.45;;;2.35;;
72156;SDS011;60035;52.122;5.406;2022-07-23T02:31:03;6.32;;;2.25;;
72156;SDS011;60035;52.122;5.406;2022-07-23T02:33:30;4.45;;;2.05;;
72156;SDS011;60035;52.122;5.406;2022-07-23T02:35:56;5.00;;;2.25;;
72156;SDS011;60035;52.122;5.406;2022-07-23T02:38:22;6.40;;;1.95;;
72156;SDS011;60035;52.122;5.406;2022-07-23T02:40:49;5.03;;;2.10;;
72156;SDS011;60035;52.122;5.406;2022-07-23T02:43:15;5.30;;;1.90;;
72156;SDS011;60035;52.122;5.406;2022-07-23T02:45:42;4.95;;;2.00;;
72156;SDS011;60035;52.122;5.406;2022-07-23T02:48:09;5.93;;;1.95;;
72156;SDS011;60035;52.122;5.406;2022-07-23T02:50:35;5.45;;;2.15;;
72156;SDS011;60035;52.122;5.406;2022-07-23T02:53:01;4.60;;;1.95;;
72156;SDS011;60035;52.122;5.406;2022-07-23T02:55:31;5.93;;;1.92;;
72156;SDS011;60035;52.122;5.406;2022-07-23T02:57:57;5.13;;;1.98;;
72156;SDS011;60035;52.122;5.406;2022-07-23T03:00:24;5.28;;;2.00;;
72156;SDS011;60035;52.122;5.406;2022-07-23T03:02:50;5.25;;;1.90;;
72156;SDS011;60035;52.122;5.406;2022-07-23T03:05:17;5.07;;;1.83;;
72156;SDS011;60035;52.122;5.406;2022-07-23T03:07:43;5.80;;;2.10;;
72156;SDS011;60035;52.122;5.406;2022-07-23T03:10:10;4.78;;;1.70;;
72156;SDS011;60035;52.122;5.406;2022-07-23T03:12:36;5.05;;;1.92;;
72156;SDS011;60035;52.122;5.406;2022-07-23T03:15:03;5.57;;;1.98;;
72156;SDS011;60035;52.122;5.406;2022-07-23T03:17:30;7.15;;;1.88;;
72156;SDS011;60035;52.122;5.406;2022-07-23T03:19:56;4.35;;;1.63;;
72156;SDS011;60035;52.122;5.406;2022-07-23T03:22:23;4.68;;;1.80;;
72156;SDS011;60035;52.122;5.406;2022-07-23T03:24:50;7.03;;;1.90;;
72156;SDS011;60035;52.122;5.406;2022-07-23T03:27:23;5.10;;;1.95;;
72156;SDS011;60035;52.122;5.406;2022-07-23T03:29:52;4.20;;;1.67;;
72156;SDS011;60035;52.122;5.406;2022-07-23T03:32:20;4.30;;;1.88;;
72156;SDS011;60035;52.122;5.406;2022-07-23T03:34:47;3.58;;;1.48;;
72156;SDS011;60035;52.122;5.406;2022-07-23T03:37:13;5.45;;;1.60;;
72156;SDS011;60035;52.122;5.406;2022-07-23T03:39:41;7.47;;;2.05;;
72156;SDS011;60035;52.122;5.406;2022-07-23T03:42:08;5.00;;;1.73;;
72156;SDS011;60035;52.122;5.406;2022-07-23T03:44:35;4.82;;;1.90;;
72156;SDS011;60035;52.122;5.406;2022-07-23T03:47:03;3.45;;;1.60;;
72156;SDS011;60035;52.122;5.406;2022-07-23T03:49:30;4.35;;;1.77;;
72156;SDS011;60035;52.122;5.406;2022-07-23T03:51:57;5.28;;;1.80;;
72156;SDS011;60035;52.122;5.406;2022-07-23T03:54:24;4.63;;;1.83;;
72156;SDS011;60035;52.122;5.406;2022-07-23T03:56:50;4.63;;;1.67;;
72156;SDS011;60035;52.122;5.406;2022-07-23T03:59:17;5.22;;;1.60;;
72156;SDS011;60035;52.122;5.406;2022-07-23T04:01:49;4.68;;;1.73;;
72156;SDS011;60035;52.122;5.406;2022-07-23T04:04:15;4.25;;;1.60;;
72156;SDS011;60035;52.122;5.406;2022-07-23T04:06:42;5.38;;;1.85;;
72156;SDS011;60035;52.122;5.406;2022-07-23T04:09:08;5.30;;;1.88;;
72156;SDS011;60035;52.122;5.406;2022-07-23T04:11:35;5.63;;;1.77;;
72156;SDS011;60035;52.122;5.406;2022-07-23T04:14:01;4.82;;;1.75;;
72156;SDS011;60035;52.122;5.406;2022-07-23T04:16:27;6.68;;;1.70;;
72156;SDS011;60035;52.122;5.406;2022-07-23T04:18:54;6.32;;;2.10;;
72156;SDS011;60035;52.122;5.406;2022-07-23T04:21:21;5.50;;;1.98;;
72156;SDS011;60035;52.122;5.406;2022-07-23T04:23:47;4.60;;;1.63;;
72156;SDS011;60035;52.122;5.406;2022-07-23T04:26:14;4.90;;;1.80;;
72156;SDS011;60035;52.122;5.406;2022-07-23T04:28:43;4.32;;;1.80;;
72156;SDS011;60035;52.122;5.406;2022-07-23T04:31:10;4.43;;;1.70;;
72156;SDS011;60035;52.122;5.406;2022-07-23T04:33:37;4.88;;;1.90;;
72156;SDS011;60035;52.122;5.406;2022-07-23T04:36:03;5.10;;;1.90;;
72156;SDS011;60035;52.122;5.406;2022-07-23T04:38:30;4.70;;;2.00;;
72156;SDS011;60035;52.122;5.406;2022-07-23T04:40:56;4.90;;;1.80;;
72156;SDS011;60035;52.122;5.406;2022-07-23T04:43:23;4.68;;;1.80;;
72156;SDS011;60035;52.122;5.406;2022-07-23T04:45:49;5.15;;;1.65;;
72156;SDS011;60035;52.122;5.406;2022-07-23T04:48:16;5.72;;;1.80;;
72156;SDS011;60035;52.122;5.406;2022-07-23T04:50:43;4.30;;;1.48;;
72156;SDS011;60035;52.122;5.406;2022-07-23T04:53:10;5.30;;;2.15;;
72156;SDS011;60035;52.122;5.406;2022-07-23T04:55:36;5.25;;;1.88;;
72156;SDS011;60035;52.122;5.406;2022-07-23T04:58:03;6.25;;;2.10;;
72156;SDS011;60035;52.122;5.406;2022-07-23T05:00:29;5.80;;;2.22;;
72156;SDS011;60035;52.122;5.406;2022-07-23T05:02:56;4.20;;;1.95;;
72156;SDS011;60035;52.122;5.406;2022-07-23T05:05:22;5.28;;;2.10;;
72156;SDS011;60035;52.122;5.406;2022-07-23T05:07:49;6.57;;;2.15;;
72156;SDS011;60035;52.122;5.406;2022-07-23T05:10:15;6.78;;;2.30;;
72156;SDS011;60035;52.122;5.406;2022-07-23T05:12:42;6.25;;;2.10;;
72156;SDS011;60035;52.122;5.406;2022-07-23T05:15:08;6.93;;;2.83;;
72156;SDS011;60035;52.122;5.406;2022-07-23T05:17:35;5.72;;;2.20;;
72156;SDS011;60035;52.122;5.406;2022-07-23T05:20:02;6.32;;;2.33;;
72156;SDS011;60035;52.122;5.406;2022-07-23T05:22:29;7.35;;;2.70;;
72156;SDS011;60035;52.122;5.406;2022-07-23T05:24:56;6.60;;;2.47;;
72156;SDS011;60035;52.122;5.406;2022-07-23T05:27:22;5.53;;;2.00;;
72156;SDS011;60035;52.122;5.406;2022-07-23T05:29:48;6.85;;;2.35;;
72156;SDS011;60035;52.122;5.406;2022-07-23T05:32:15;5.95;;;2.33;;
72156;SDS011;60035;52.122;5.406;2022-07-23T05:34:41;5.13;;;2.08;;
72156;SDS011;60035;52.122;5.406;2022-07-23T05:37:08;8.25;;;2.70;;
72156;SDS011;60035;52.122;5.406;2022-07-23T05:39:34;9.60;;;3.33;;
72156;SDS011;60035;52.122;5.406;2022-07-23T05:42:01;7.45;;;3.00;;
72156;SDS011;60035;52.122;5.406;2022-07-23T05:44:27;8.82;;;3.10;;
72156;SDS011;60035;52.122;5.406;2022-07-23T05:46:59;9.15;;;3.47;;
72156;SDS011;60035;52.122;5.406;2022-07-23T05:49:26;8.57;;;3.30;;
72156;SDS011;60035;52.122;5.406;2022-07-23T05:51:53;10.00;;;3.08;;
72156;SDS011;60035;52.122;5.406;2022-07-23T05:54:19;6.78;;;2.63;;
72156;SDS011;60035;52.122;5.406;2022-07-23T05:56:46;7.97;;;2.80;;
72156;SDS011;60035;52.122;5.406;2022-07-23T05:59:12;6.70;;;2.85;;
72156;SDS011;60035;52.122;5.406;2022-07-23T06:01:40;7.10;;;2.90;;
72156;SDS011;60035;52.122;5.406;2022-07-23T06:04:07;7.97;;;2.60;;
72156;SDS011;60035;52.122;5.406;2022-07-23T06:06:34;6.03;;;2.17;;
72156;SDS011;60035;52.122;5.406;2022-07-23T06:09:00;9.73;;;2.30;;
72156;SDS011;60035;52.122;5.406;2022-07-23T06:11:27;6.70;;;2.30;;
72156;SDS011;60035;52.122;5.406;2022-07-23T06:13:54;6.70;;;2.10;;
72156;SDS011;60035;52.122;5.406;2022-07-23T06:16:20;6.82;;;2.10;;
72156;SDS011;60035;52.122;5.406;2022-07-23T06:18:47;6.45;;;2.22;;
72156;SDS011;60035;52.122;5.406;2022-07-23T06:21:13;6.63;;;2.10;;
72156;SDS011;60035;52.122;5.406;2022-07-23T06:24:00;7.68;;;2.30;;
72156;SDS011;60035;52.122;5.406;2022-07-23T06:26:27;5.78;;;2.53;;
72156;SDS011;60035;52.122;5.406;2022-07-23T06:28:53;6.95;;;2.42;;
72156;SDS011;60035;52.122;5.406;2022-07-23T06:31:20;6.00;;;2.10;;
72156;SDS011;60035;52.122;5.406;2022-07-23T06:33:46;8.73;;;2.40;;
72156;SDS011;60035;52.122;5.406;2022-07-23T06:36:13;6.65;;;2.20;;
72156;SDS011;60035;52.122;5.406;2022-07-23T06:38:39;7.97;;;2.20;;
72156;SDS011;60035;52.122;5.406;2022-07-23T06:41:05;5.10;;;2.08;;
72156;SDS011;60035;52.122;5.406;2022-07-23T06:43:32;4.90;;;2.33;;
72156;SDS011;60035;52.122;5.406;2022-07-23T06:45:59;4.60;;;1.75;;
72156;SDS011;60035;52.122;5.406;2022-07-23T06:48:25;4.93;;;1.60;;
72156;SDS011;60035;52.122;5.406;2022-07-23T06:50:52;4.22;;;1.63;;
72156;SDS011;60035;52.122;5.406;2022-07-23T06:53:18;4.55;;;1.80;;
72156;SDS011;60035;52.122;5.406;2022-07-23T06:55:45;6.20;;;1.80;;
72156;SDS011;60035;52.122;5.406;2022-07-23T06:58:11;4.32;;;1.42;;
72156;SDS011;60035;52.122;5.406;2022-07-23T07:00:40;5.90;;;1.75;;
72156;SDS011;60035;52.122;5.406;2022-07-23T07:03:06;3.80;;;1.40;;
72156;SDS011;60035;52.122;5.406;2022-07-23T07:05:36;5.55;;;1.63;;
72156;SDS011;60035;52.122;5.406;2022-07-23T07:08:06;6.45;;;1.30;;
72156;SDS011;60035;52.122;5.406;2022-07-23T07:10:35;6.40;;;1.50;;
72156;SDS011;60035;52.122;5.406;2022-07-23T07:13:02;5.22;;;1.25;;
72156;SDS011;60035;52.122;5.406;2022-07-23T07:15:29;9.77;;;1.70;;
72156;SDS011;60035;52.122;5.406;2022-07-23T07:17:55;6.25;;;1.17;;
72156;SDS011;60035;52.122;5.406;2022-07-23T07:20:22;5.22;;;1.55;;
72156;SDS011;60035;52.122;5.406;2022-07-23T07:22:49;4.63;;;1.52;;
72156;SDS011;60035;52.122;5.406;2022-07-23T07:25:16;3.55;;;1.45;;
72156;SDS011;60035;52.122;5.406;2022-07-23T07:27:42;3.22;;;1.30;;
72156;SDS011;60035;52.122;5.406;2022-07-23T07:30:10;4.05;;;1.20;;
72156;SDS011;60035;52.122;5.406;2022-07-23T07:32:37;4.57;;;1.40;;
72156;SDS011;60035;52.122;5.406;2022-07-23T07:35:22;4.30;;;1.20;;
72156;SDS011;60035;52.122;5.406;2022-07-23T07:37:48;3.08;;;1.20;;
72156;SDS011;60035;52.122;5.406;2022-07-23T07:40:14;3.67;;;1.30;;
72156;SDS011;60035;52.122;5.406;2022-07-23T07:42:45;3.67;;;1.30;;
72156;SDS011;60035;52.122;5.406;2022-07-23T07:45:15;3.78;;;1.23;;
72156;SDS011;60035;52.122;5.406;2022-07-23T07:47:41;3.92;;;1.10;;
72156;SDS011;60035;52.122;5.406;2022-07-23T07:50:08;3.03;;;1.20;;
72156;SDS011;60035;52.122;5.406;2022-07-23T07:52:37;3.13;;;1.10;;
72156;SDS011;60035;52.122;5.406;2022-07-23T07:55:04;4.50;;;1.35;;
72156;SDS011;60035;52.122;5.406;2022-07-23T07:57:32;3.83;;;1.30;;
72156;SDS011;60035;52.122;5.406;2022-07-23T07:59:59;3.75;;;1.10;;
72156;SDS011;60035;52.122;5.406;2022-07-23T08:02:43;4.32;;;1.10;;
72156;SDS011;60035;52.122;5.406;2022-07-23T08:05:12;2.97;;;1.13;;
72156;SDS011;60035;52.122;5.406;2022-07-23T08:07:39;4.38;;;1.40;;
72156;SDS011;60035;52.122;5.406;2022-07-23T08:10:07;3.80;;;1.80;;
72156;SDS011;60035;52.122;5.406;2022-07-23T08:12:47;3.83;;;1.58;;
72156;SDS011;60035;52.122;5.406;2022-07-23T08:15:16;3.25;;;1.40;;
72156;SDS011;60035;52.122;5.406;2022-07-23T08:17:45;3.80;;;1.50;;
72156;SDS011;60035;52.122;5.406;2022-07-23T08:20:13;3.38;;;1.23;;
72156;SDS011;60035;52.122;5.406;2022-07-23T08:22:49;4.72;;;1.20;;
72156;SDS011;60035;52.122;5.406;2022-07-23T08:25:27;4.65;;;1.65;;
72156;SDS011;60035;52.122;5.406;2022-07-23T08:27:56;3.30;;;1.10;;
72156;SDS011;60035;52.122;5.406;2022-07-23T08:30:23;3.80;;;1.30;;
72156;SDS011;60035;52.122;5.406;2022-07-23T08:32:54;3.53;;;1.52;;
72156;SDS011;60035;52.122;5.406;2022-07-23T08:35:23;3.13;;;1.50;;
72156;SDS011;60035;52.122;5.406;2022-07-23T08:37:52;6.00;;;1.60;;
72156;SDS011;60035;52.122;5.406;2022-07-23T08:40:19;3.90;;;1.30;;
72156;SDS011;60035;52.122;5.406;2022-07-23T08:42:49;3.03;;;1.13;;
72156;SDS011;60035;52.122;5.406;2022-07-23T08:45:17;4.13;;;1.10;;
72156;SDS011;60035;52.122;5.406;2022-07-23T08:47:50;3.65;;;1.20;;
72156;SDS011;60035;52.122;5.406;2022-07-23T08:50:19;4.72;;;1.48;;
72156;SDS011;60035;52.122;5.406;2022-07-23T08:52:48;3.60;;;1.33;;
72156;SDS011;60035;52.122;5.406;2022-07-23T08:55:19;3.50;;;1.50;;
72156;SDS011;60035;52.122;5.406;2022-07-23T08:57:47;4.28;;;1.50;;
72156;SDS011;60035;52.122;5.406;2022-07-23T09:00:16;4.45;;;1.40;;
72156;SDS011;60035;52.122;5.406;2022-07-23T09:02:44;3.13;;;0.80;;
72156;SDS011;60035;52.122;5.406;2022-07-23T09:05:12;3.30;;;1.30;;
72156;SDS011;60035;52.122;5.406;2022-07-23T09:10:58;3.22;;;1.30;;
72156;SDS011;60035;52.122;5.406;2022-07-23T09:16:09;3.47;;;1.30;;
72156;SDS011;60035;52.122;5.406;2022-07-23T09:18:40;2.38;;;0.80;;
72156;SDS011;60035;52.122;5.406;2022-07-23T09:21:14;3.72;;;0.95;;
72156;SDS011;60035;52.122;5.406;2022-07-23T09:24:00;3.00;;;1.13;;
72156;SDS011;60035;52.122;5.406;2022-07-23T09:26:31;5.07;;;1.17;;
72156;SDS011;60035;52.122;5.406;2022-07-23T09:31:31;3.08;;;0.90;;
72156;SDS011;60035;52.122;5.406;2022-07-23T09:34:06;5.32;;;0.90;;
72156;SDS011;60035;52.122;5.406;2022-07-23T09:36:35;3.75;;;0.82;;
72156;SDS011;60035;52.122;5.406;2022-07-23T09:39:03;3.30;;;1.00;;
72156;SDS011;60035;52.122;5.406;2022-07-23T09:41:33;4.95;;;0.90;;
72156;SDS011;60035;52.122;5.406;2022-07-23T09:44:09;3.25;;;1.13;;
72156;SDS011;60035;52.122;5.406;2022-07-23T09:46:37;1.80;;;0.90;;
72156;SDS011;60035;52.122;5.406;2022-07-23T09:49:18;4.22;;;1.30;;
72156;SDS011;60035;52.122;5.406;2022-07-23T09:51:48;4.22;;;1.25;;
72156;SDS011;60035;52.122;5.406;2022-07-23T09:56:48;2.90;;;1.05;;
72156;SDS011;60035;52.122;5.406;2022-07-23T09:59:16;3.92;;;1.00;;
72156;SDS011;60035;52.122;5.406;2022-07-23T10:01:45;2.63;;;1.00;;
72156;SDS011;60035;52.122;5.406;2022-07-23T10:04:12;3.53;;;0.93;;
72156;SDS011;60035;52.122;5.406;2022-07-23T10:06:40;3.20;;;1.00;;
72156;SDS011;60035;52.122;5.406;2022-07-23T10:09:09;3.47;;;1.05;;
72156;SDS011;60035;52.122;5.406;2022-07-23T10:11:38;2.88;;;1.05;;
72156;SDS011;60035;52.122;5.406;2022-07-23T10:14:05;2.53;;;0.90;;
72156;SDS011;60035;52.122;5.406;2022-07-23T10:16:32;2.10;;;0.80;;
72156;SDS011;60035;52.122;5.406;2022-07-23T10:18:59;3.22;;;1.13;;
72156;SDS011;60035;52.122;5.406;2022-07-23T10:27:36;2.00;;;0.82;;
72156;SDS011;60035;52.122;5.406;2022-07-23T10:32:59;2.60;;;0.90;;
72156;SDS011;60035;52.122;5.406;2022-07-23T10:35:55;2.97;;;1.25;;
72156;SDS011;60035;52.122;5.406;2022-07-23T10:38:30;3.67;;;1.00;;
72156;SDS011;60035;52.122;5.406;2022-07-23T10:41:02;3.45;;;0.80;;
72156;SDS011;60035;52.122;5.406;2022-07-23T10:43:30;4.32;;;1.48;;
72156;SDS011;60035;52.122;5.406;2022-07-23T10:49:38;3.03;;;1.13;;
72156;SDS011;60035;52.122;5.406;2022-07-23T10:54:42;6.57;;;1.02;;
72156;SDS011;60035;52.122;5.406;2022-07-23T10:57:11;3.47;;;1.00;;
72156;SDS011;60035;52.122;5.406;2022-07-23T11:02:30;2.53;;;1.13;;
72156;SDS011;60035;52.122;5.406;2022-07-23T11:05:03;2.50;;;1.40;;
72156;SDS011;60035;52.122;5.406;2022-07-23T11:07:30;3.72;;;1.20;;
72156;SDS011;60035;52.122;5.406;2022-07-23T11:09:57;2.50;;;1.10;;
72156;SDS011;60035;52.122;5.406;2022-07-23T11:17:35;2.72;;;1.17;;
72156;SDS011;60035;52.122;5.406;2022-07-23T11:25:11;3.95;;;1.05;;
72156;SDS011;60035;52.122;5.406;2022-07-23T11:27:39;4.75;;;1.10;;
72156;SDS011;60035;52.122;5.406;2022-07-23T11:33:15;3.30;;;1.20;;
72156;SDS011;60035;52.122;5.406;2022-07-23T11:35:42;4.47;;;1.30;;
72156;SDS011;60035;52.122;5.406;2022-07-23T11:40:41;2.70;;;0.90;;
72156;SDS011;60035;52.122;5.406;2022-07-23T11:43:11;3.38;;;1.20;;
72156;SDS011;60035;52.122;5.406;2022-07-23T11:45:42;2.42;;;1.00;;
72156;SDS011;60035;52.122;5.406;2022-07-23T11:48:43;4.55;;;1.20;;
72156;SDS011;60035;52.122;5.406;2022-07-23T11:51:06;3.40;;;1.35;;
72156;SDS011;60035;52.122;5.406;2022-07-23T11:53:33;2.55;;;1.10;;
72156;SDS011;60035;52.122;5.406;2022-07-23T11:56:10;4.88;;;1.38;;
72156;SDS011;60035;52.122;5.406;2022-07-23T11:58:38;3.08;;;1.00;;
72156;SDS011;60035;52.122;5.406;2022-07-23T12:01:05;2.40;;;1.05;;
72156;SDS011;60035;52.122;5.406;2022-07-23T12:03:48;2.42;;;1.17;;
72156;SDS011;60035;52.122;5.406;2022-07-23T12:06:15;3.80;;;1.38;;
72156;SDS011;60035;52.122;5.406;2022-07-23T12:08:42;3.58;;;1.30;;
72156;SDS011;60035;52.122;5.406;2022-07-23T12:11:08;2.13;;;1.38;;
72156;SDS011;60035;52.122;5.406;2022-07-23T12:16:05;2.90;;;1.33;;
72156;SDS011;60035;52.122;5.406;2022-07-23T12:18:31;3.15;;;1.10;;
72156;SDS011;60035;52.122;5.406;2022-07-23T12:21:02;2.92;;;1.13;;
72156;SDS011;60035;52.122;5.406;2022-07-23T12:23:30;4.30;;;1.33;;
72156;SDS011;60035;52.122;5.406;2022-07-23T12:26:00;3.72;;;1.33;;
72156;SDS011;60035;52.122;5.406;2022-07-23T12:28:29;3.63;;;1.27;;
72156;SDS011;60035;52.122;5.406;2022-07-23T12:30:59;2.88;;;1.20;;
72156;SDS011;60035;52.122;5.406;2022-07-23T12:33:27;5.75;;;1.60;;
72156;SDS011;60035;52.122;5.406;2022-07-23T12:35:57;3.97;;;1.40;;
72156;SDS011;60035;52.122;5.406;2022-07-23T12:38:25;4.60;;;1.10;;
72156;SDS011;60035;52.122;5.406;2022-07-23T12:40:54;3.65;;;1.15;;
72156;SDS011;60035;52.122;5.406;2022-07-23T12:48:37;4.70;;;1.20;;
72156;SDS011;60035;52.122;5.406;2022-07-23T12:51:14;4.63;;;1.30;;
72156;SDS011;60035;52.122;5.406;2022-07-23T12:56:13;2.10;;;1.33;;
72156;SDS011;60035;52.122;5.406;2022-07-23T13:01:29;2.78;;;1.10;;
72156;SDS011;60035;52.122;5.406;2022-07-23T13:04:12;4.22;;;1.20;;
72156;SDS011;60035;52.122;5.406;2022-07-23T13:09:22;4.47;;;1.00;;
72156;SDS011;60035;52.122;5.406;2022-07-23T13:11:51;4.10;;;1.33;;
72156;SDS011;60035;52.122;5.406;2022-07-23T13:14:22;5.00;;;1.40;;
72156;SDS011;60035;52.122;5.406;2022-07-23T13:16:50;2.83;;;1.20;;
72156;SDS011;60035;52.122;5.406;2022-07-23T13:19:18;3.65;;;1.25;;
72156;SDS011;60035;52.122;5.406;2022-07-23T13:21:46;4.65;;;1.40;;
72156;SDS011;60035;52.122;5.406;2022-07-23T13:24:12;5.15;;;1.33;;
72156;SDS011;60035;52.122;5.406;2022-07-23T13:26:40;2.72;;;1.20;;
72156;SDS011;60035;52.122;5.406;2022-07-23T13:29:07;4.75;;;1.50;;
72156;SDS011;60035;52.122;5.406;2022-07-23T13:31:36;2.60;;;1.30;;
72156;SDS011;60035;52.122;5.406;2022-07-23T13:34:04;1.98;;;1.10;;
72156;SDS011;60035;52.122;5.406;2022-07-23T13:36:33;3.15;;;1.17;;
72156;SDS011;60035;52.122;5.406;2022-07-23T13:38:59;4.28;;;1.35;;
72156;SDS011;60035;52.122;5.406;2022-07-23T13:41:26;4.05;;;1.40;;
72156;SDS011;60035;52.122;5.406;2022-07-23T13:43:53;3.40;;;1.60;;
72156;SDS011;60035;52.122;5.406;2022-07-23T13:46:20;4.63;;;1.50;;
72156;SDS011;60035;52.122;5.406;2022-07-23T13:48:47;2.67;;;1.25;;
72156;SDS011;60035;52.122;5.406;2022-07-23T13:51:15;5.70;;;1.60;;
72156;SDS011;60035;52.122;5.406;2022-07-23T13:53:42;2.95;;;1.20;;
72156;SDS011;60035;52.122;5.406;2022-07-23T13:56:08;2.63;;;1.17;;
72156;SDS011;60035;52.122;5.406;2022-07-23T13:58:35;2.38;;;1.25;;
72156;SDS011;60035;52.122;5.406;2022-07-23T14:01:02;3.85;;;1.50;;
72156;SDS011;60035;52.122;5.406;2022-07-23T14:03:28;2.97;;;1.42;;
72156;SDS011;60035;52.122;5.406;2022-07-23T14:05:55;3.00;;;1.52;;
72156;SDS011;60035;52.122;5.406;2022-07-23T14:08:22;4.38;;;1.70;;
72156;SDS011;60035;52.122;5.406;2022-07-23T14:10:49;2.70;;;1.50;;
72156;SDS011;60035;52.122;5.406;2022-07-23T14:13:16;4.65;;;1.63;;
72156;SDS011;60035;52.122;5.406;2022-07-23T14:15:46;3.88;;;1.50;;
72156;SDS011;60035;52.122;5.406;2022-07-23T14:18:13;3.28;;;1.58;;
72156;SDS011;60035;52.122;5.406;2022-07-23T14:20:40;3.72;;;1.40;;
72156;SDS011;60035;52.122;5.406;2022-07-23T14:23:06;3.92;;;1.50;;
72156;SDS011;60035;52.122;5.406;2022-07-23T14:25:33;3.65;;;1.40;;
72156;SDS011;60035;52.122;5.406;2022-07-23T14:27:59;5.65;;;1.88;;
72156;SDS011;60035;52.122;5.406;2022-07-23T14:30:26;2.65;;;1.30;;
72156;SDS011;60035;52.122;5.406;2022-07-23T14:32:59;4.18;;;1.20;;
72156;SDS011;60035;52.122;5.406;2022-07-23T14:35:26;3.35;;;1.40;;
72156;SDS011;60035;52.122;5.406;2022-07-23T14:37:52;4.28;;;1.30;;
72156;SDS011;60035;52.122;5.406;2022-07-23T14:40:20;2.13;;;1.25;;
72156;SDS011;60035;52.122;5.406;2022-07-23T14:42:48;2.97;;;1.30;;
72156;SDS011;60035;52.122;5.406;2022-07-23T14:45:15;3.60;;;1.40;;
72156;SDS011;60035;52.122;5.406;2022-07-23T14:47:44;2.83;;;1.27;;
72156;SDS011;60035;52.122;5.406;2022-07-23T14:50:12;3.03;;;1.30;;
72156;SDS011;60035;52.122;5.406;2022-07-23T14:52:39;4.22;;;1.40;;
72156;SDS011;60035;52.122;5.406;2022-07-23T14:55:06;4.68;;;1.45;;
72156;SDS011;60035;52.122;5.406;2022-07-23T14:57:33;4.60;;;1.48;;
72156;SDS011;60035;52.122;5.406;2022-07-23T14:59:59;4.32;;;1.45;;
72156;SDS011;60035;52.122;5.406;2022-07-23T15:02:26;3.55;;;1.15;;
72156;SDS011;60035;52.122;5.406;2022-07-23T15:04:52;4.68;;;1.27;;
72156;SDS011;60035;52.122;5.406;2022-07-23T15:07:19;3.45;;;1.38;;
72156;SDS011;60035;52.122;5.406;2022-07-23T15:09:46;2.88;;;1.40;;
72156;SDS011;60035;52.122;5.406;2022-07-23T15:12:13;3.85;;;1.55;;
72156;SDS011;60035;52.122;5.406;2022-07-23T15:14:40;3.55;;;1.40;;
72156;SDS011;60035;52.122;5.406;2022-07-23T15:17:06;2.83;;;1.30;;
72156;SDS011;60035;52.122;5.406;2022-07-23T15:19:33;3.67;;;1.60;;
72156;SDS011;60035;52.122;5.406;2022-07-23T15:21:59;3.38;;;1.27;;
72156;SDS011;60035;52.122;5.406;2022-07-23T15:24:27;4.35;;;1.42;;
72156;SDS011;60035;52.122;5.406;2022-07-23T15:26:54;3.75;;;1.35;;
72156;SDS011;60035;52.122;5.406;2022-07-23T15:29:20;3.78;;;1.48;;
72156;SDS011;60035;52.122;5.406;2022-07-23T15:31:47;2.58;;;1.40;;
72156;SDS011;60035;52.122;5.406;2022-07-23T15:34:20;3.28;;;1.40;;
72156;SDS011;60035;52.122;5.406;2022-07-23T15:36:46;3.10;;;1.20;;
72156;SDS011;60035;52.122;5.406;2022-07-23T15:39:13;3.78;;;1.80;;
72156;SDS011;60035;52.122;5.406;2022-07-23T15:41:40;5.35;;;1.40;;
72156;SDS011;60035;52.122;5.406;2022-07-23T15:44:08;3.35;;;1.50;;
72156;SDS011;60035;52.122;5.406;2022-07-23T15:46:53;3.85;;;1.60;;
72156;SDS011;60035;52.122;5.406;2022-07-23T15:49:21;3.78;;;1.30;;
72156;SDS011;60035;52.122;5.406;2022-07-23T15:51:47;3.72;;;2.00;;
72156;SDS011;60035;52.122;5.406;2022-07-23T15:54:14;4.63;;;1.42;;